createdAt,value
2022-11-08T00:00:47.112Z,5.07
2022-11-08T00:02:48.916Z,5.60
2022-11-08T00:04:50.674Z,4.82
2022-11-08T00:07:11.035Z,4.85
2022-11-08T00:09:31.535Z,4.45
2022-11-08T00:11:51.898Z,5.05
2022-11-08T00:14:03.034Z,4.50
2022-11-08T00:16:04.882Z,5.32
2022-11-08T00:18:07.588Z,5.25
2022-11-08T00:20:09.938Z,5.43
2022-11-08T00:22:12.545Z,5.97
2022-11-08T00:24:14.215Z,5.60
2022-11-08T00:26:15.916Z,5.72
2022-11-08T00:28:17.720Z,5.15
2022-11-08T00:30:19.492Z,6.00
2022-11-08T00:32:23.558Z,5.15
2022-11-08T00:34:25.141Z,5.20
2022-11-08T00:36:29.899Z,5.68
2022-11-08T00:38:31.570Z,5.80
2022-11-08T00:40:34.689Z,4.57
2022-11-08T00:42:36.442Z,5.03
2022-11-08T00:44:41.298Z,4.78
2022-11-08T00:46:42.975Z,5.13
2022-11-08T00:48:44.611Z,4.60
2022-11-08T00:50:46.378Z,4.07
2022-11-08T00:52:48.050Z,4.32
2022-11-08T00:54:49.667Z,5.13
2022-11-08T00:56:51.487Z,4.93
2022-11-08T00:58:53.138Z,4.60
2022-11-08T01:00:55.539Z,5.10
2022-11-08T01:03:15.589Z,4.53
2022-11-08T01:05:17.373Z,5.07
2022-11-08T01:07:19.330Z,4.72
2022-11-08T01:09:21.039Z,4.57
2022-11-08T01:11:24.103Z,4.07
2022-11-08T01:13:25.762Z,4.60
2022-11-08T01:15:27.503Z,4.28
2022-11-08T01:17:31.798Z,4.07
2022-11-08T01:19:33.520Z,3.40
2022-11-08T01:21:35.475Z,4.22
2022-11-08T01:23:37.552Z,3.60
2022-11-08T01:25:40.917Z,3.03
2022-11-08T01:27:44.121Z,4.28
2022-11-08T01:29:45.771Z,2.75
2022-11-08T01:31:47.450Z,3.47
2022-11-08T01:33:51.486Z,4.30
2022-11-08T01:35:54.368Z,4.05
2022-11-08T01:37:56.013Z,2.50
2022-11-08T01:39:57.680Z,3.60
2022-11-08T01:41:59.336Z,3.10
2022-11-08T01:44:00.983Z,3.25
2022-11-08T01:46:21.136Z,3.22
2022-11-08T01:48:24.009Z,4.07
2022-11-08T01:50:25.742Z,3.40
2022-11-08T01:52:34.151Z,2.85
2022-11-08T01:54:59.510Z,3.25
2022-11-08T01:57:02.786Z,3.72
2022-11-08T01:59:06.348Z,3.50
2022-11-08T02:01:08.580Z,3.42
2022-11-08T02:03:12.942Z,3.28
2022-11-08T02:05:35.116Z,2.50
2022-11-08T02:07:36.827Z,3.67
2022-11-08T02:09:40.395Z,3.65
2022-11-08T02:11:42.396Z,2.90
2022-11-08T02:13:44.229Z,3.40
2022-11-08T02:15:46.231Z,3.03
2022-11-08T02:17:47.919Z,3.60
2022-11-08T02:19:51.030Z,3.42
2022-11-08T02:21:58.977Z,3.85
2022-11-08T02:24:08.711Z,2.45
2022-11-08T02:26:10.461Z,3.67
2022-11-08T02:28:12.108Z,3.25
2022-11-08T02:30:13.760Z,3.88
2022-11-08T02:32:15.423Z,3.13
2022-11-08T02:34:17.370Z,3.38
2022-11-08T02:36:23.298Z,2.90
2022-11-08T02:38:26.217Z,3.55
2022-11-08T02:40:28.030Z,2.72
2022-11-08T02:42:29.742Z,3.40
2022-11-08T02:44:31.615Z,3.58
2022-11-08T02:46:33.333Z,3.83
2022-11-08T02:48:35.048Z,3.38
2022-11-08T02:50:36.802Z,4.10
2022-11-08T02:52:38.502Z,3.47
2022-11-08T02:54:40.380Z,3.90
2022-11-08T02:56:42.065Z,3.25
2022-11-08T02:58:43.694Z,2.85
2022-11-08T03:00:45.366Z,3.38
2022-11-08T03:02:51.380Z,3.50
2022-11-08T03:04:53.016Z,2.40
2022-11-08T03:06:54.800Z,2.33
2022-11-08T03:08:56.627Z,2.38
2022-11-08T03:11:00.228Z,2.67
2022-11-08T03:13:04.612Z,2.58
2022-11-08T03:15:08.000Z,2.53
2022-11-08T03:17:09.799Z,3.40
2022-11-08T03:19:12.123Z,2.78
2022-11-08T03:21:13.825Z,3.42
2022-11-08T03:23:15.503Z,3.63
2022-11-08T03:25:17.266Z,3.28
2022-11-08T03:27:19.378Z,3.97
2022-11-08T03:29:20.975Z,3.20
2022-11-08T03:31:22.691Z,3.42
2022-11-08T03:33:24.689Z,3.53
2022-11-08T03:35:26.441Z,3.55
2022-11-08T03:37:28.095Z,3.70
2022-11-08T03:39:29.724Z,3.20
2022-11-08T03:41:31.481Z,3.45
2022-11-08T03:43:33.159Z,3.88
2022-11-08T03:45:35.192Z,2.47
2022-11-08T03:47:41.040Z,3.15
2022-11-08T03:49:42.688Z,3.25
2022-11-08T03:51:44.340Z,2.50
2022-11-08T03:53:45.955Z,3.50
2022-11-08T03:55:47.635Z,2.53
2022-11-08T03:57:50.070Z,2.67
2022-11-08T03:59:51.698Z,2.50
2022-11-08T04:01:53.456Z,2.78
2022-11-08T04:03:55.237Z,2.35
2022-11-08T04:05:56.898Z,2.33
2022-11-08T04:07:59.910Z,2.08
2022-11-08T04:10:02.667Z,2.00
2022-11-08T04:12:22.774Z,1.60
2022-11-08T04:14:42.978Z,2.22
2022-11-08T04:16:44.729Z,1.98
2022-11-08T04:19:04.885Z,2.58
2022-11-08T04:21:22.434Z,1.65
2022-11-08T04:23:24.244Z,1.88
2022-11-08T04:25:26.752Z,1.90
2022-11-08T04:27:30.610Z,1.90
2022-11-08T04:29:32.385Z,2.22
2022-11-08T04:31:34.335Z,2.00
2022-11-08T04:33:36.188Z,1.98
2022-11-08T04:35:38.008Z,2.58
2022-11-08T04:37:39.636Z,2.10
2022-11-08T04:39:41.276Z,1.80
2022-11-08T04:41:42.939Z,2.20
2022-11-08T04:43:44.595Z,2.13
2022-11-08T04:45:46.243Z,1.63
2022-11-08T04:47:49.002Z,1.75
2022-11-08T04:49:50.794Z,1.67
2022-11-08T04:51:52.493Z,2.25
2022-11-08T04:53:58.951Z,1.63
2022-11-08T04:56:05.463Z,1.83
2022-11-08T04:58:09.668Z,1.88
2022-11-08T05:00:12.023Z,1.98
2022-11-08T05:02:13.771Z,1.90
2022-11-08T05:04:15.713Z,2.35
2022-11-08T05:06:20.700Z,2.17
2022-11-08T05:08:22.426Z,2.20
2022-11-08T05:10:24.060Z,1.98
2022-11-08T05:12:25.761Z,2.47
2022-11-08T05:14:27.449Z,2.55
2022-11-08T05:16:32.013Z,2.00
2022-11-08T05:18:34.060Z,1.75
2022-11-08T05:20:54.239Z,2.83
2022-11-08T05:23:19.540Z,5.85
2022-11-08T05:25:21.220Z,4.40
2022-11-08T05:27:22.903Z,5.00
2022-11-08T05:29:24.609Z,5.20
2022-11-08T05:31:26.559Z,5.35
2022-11-08T05:33:28.516Z,4.38
2022-11-08T05:35:30.353Z,4.38
2022-11-08T05:37:32.184Z,3.33
2022-11-08T05:39:33.798Z,4.20
2022-11-08T05:41:35.546Z,3.10
2022-11-08T05:43:37.829Z,3.50
2022-11-08T05:45:39.563Z,2.55
2022-11-08T05:47:45.414Z,3.65
2022-11-08T05:49:47.054Z,3.70
2022-11-08T05:51:48.746Z,4.07
2022-11-08T05:53:50.639Z,4.38
2022-11-08T05:55:58.369Z,5.40
2022-11-08T05:58:00.223Z,4.45
2022-11-08T06:00:02.033Z,4.88
2022-11-08T06:02:03.900Z,3.22
2022-11-08T06:04:05.769Z,3.05
2022-11-08T06:06:10.265Z,2.58
2022-11-08T06:08:11.972Z,2.40
2022-11-08T06:10:13.985Z,2.55
2022-11-08T06:12:15.641Z,2.80
2022-11-08T06:14:18.817Z,4.47
2022-11-08T06:16:22.091Z,5.45
2022-11-08T06:18:23.819Z,7.38
2022-11-08T06:20:25.537Z,6.47
2022-11-08T06:22:31.410Z,6.80
2022-11-08T06:24:33.150Z,6.63
2022-11-08T06:26:35.302Z,5.35
2022-11-08T06:28:37.281Z,5.32
2022-11-08T06:30:39.349Z,5.20
2022-11-08T06:32:41.383Z,4.05
2022-11-08T06:34:43.181Z,4.63
2022-11-08T06:36:44.938Z,4.68
2022-11-08T06:38:46.959Z,5.40
2022-11-08T06:40:49.095Z,4.00
2022-11-08T06:42:51.020Z,5.85
2022-11-08T06:44:53.159Z,5.03
2022-11-08T06:46:57.751Z,5.13
2022-11-08T06:49:02.314Z,5.72
2022-11-08T06:51:04.283Z,6.53
2022-11-08T06:53:07.908Z,6.07
2022-11-08T06:55:09.590Z,5.82
2022-11-08T06:57:11.285Z,5.72
2022-11-08T06:59:13.180Z,5.93
2022-11-08T07:01:14.967Z,4.03
2022-11-08T07:03:17.213Z,3.72
2022-11-08T07:05:19.107Z,3.55
2022-11-08T07:07:20.750Z,2.85
2022-11-08T07:09:22.375Z,3.05
2022-11-08T07:11:24.457Z,2.78
2022-11-08T07:13:26.087Z,3.45
2022-11-08T07:15:28.017Z,4.20
2022-11-08T07:17:32.114Z,4.03
2022-11-08T07:19:37.509Z,2.60
2022-11-08T07:21:39.228Z,2.33
2022-11-08T07:23:42.356Z,2.08
2022-11-08T07:25:44.136Z,1.33
2022-11-08T07:27:45.849Z,1.60
2022-11-08T07:29:47.531Z,1.75
2022-11-08T07:31:49.219Z,2.17
2022-11-08T07:33:57.194Z,3.55
2022-11-08T07:35:59.253Z,3.72
2022-11-08T07:38:01.071Z,4.40
2022-11-08T07:40:02.843Z,3.55
2022-11-08T07:42:05.331Z,2.65
2022-11-08T07:44:07.028Z,3.03
2022-11-08T07:46:08.906Z,2.47
2022-11-08T07:48:13.267Z,2.13
2022-11-08T07:50:17.863Z,3.25
2022-11-08T07:52:23.167Z,2.85
2022-11-08T07:54:24.810Z,2.42
2022-11-08T07:56:29.948Z,2.30
2022-11-08T07:58:31.691Z,3.00
2022-11-08T08:00:38.635Z,2.80
2022-11-08T08:02:40.878Z,2.40
2022-11-08T08:04:42.723Z,2.72
2022-11-08T08:06:44.511Z,2.50
2022-11-08T08:08:46.715Z,3.20
2022-11-08T08:10:48.754Z,2.88
2022-11-08T08:12:50.398Z,2.10
2022-11-08T08:14:52.058Z,1.85
2022-11-08T08:16:53.945Z,2.65
2022-11-08T08:18:56.775Z,1.98
2022-11-08T08:20:59.182Z,2.00
2022-11-08T08:23:01.340Z,2.28
2022-11-08T08:25:03.468Z,2.10
2022-11-08T08:27:05.255Z,1.90
2022-11-08T08:29:07.172Z,1.90
2022-11-08T08:31:08.959Z,1.77
2022-11-08T08:33:27.831Z,3.28
2022-11-08T08:35:30.754Z,2.88
2022-11-08T08:37:32.528Z,3.55
2022-11-08T08:39:34.253Z,3.97
2022-11-08T08:41:36.114Z,3.72
2022-11-08T08:43:38.021Z,3.95
2022-11-08T08:45:47.255Z,2.83
2022-11-08T08:47:53.608Z,3.67
2022-11-08T08:49:55.344Z,3.17
2022-11-08T08:51:57.337Z,2.75
2022-11-08T08:53:59.211Z,3.22
2022-11-08T08:56:02.469Z,2.65
2022-11-08T08:58:04.759Z,2.72
2022-11-08T09:02:28.666Z,2.17
2022-11-08T09:04:30.398Z,2.65
2022-11-08T09:06:32.392Z,2.63
2022-11-08T09:08:34.111Z,2.25
2022-11-08T09:10:35.860Z,2.13
2022-11-08T09:12:38.425Z,2.08
2022-11-08T09:14:40.126Z,1.33
2022-11-08T09:16:42.004Z,2.58
2022-11-08T09:18:43.760Z,1.50
2022-11-08T09:20:45.852Z,1.02
2022-11-08T09:22:47.730Z,0.77
2022-11-08T09:24:49.456Z,0.55
2022-11-08T09:26:53.771Z,0.80
2022-11-08T09:28:55.507Z,0.70
2022-11-08T09:31:00.814Z,0.40
2022-11-08T09:33:02.925Z,0.50
2022-11-08T09:35:05.241Z,0.75
2022-11-08T09:37:06.896Z,0.80
2022-11-08T09:39:09.644Z,0.70
2022-11-08T09:42:08.251Z,0.50
2022-11-08T09:44:13.001Z,0.80
2022-11-08T09:46:26.601Z,0.77
2022-11-08T09:48:30.188Z,0.70
2022-11-08T09:50:45.426Z,0.80
2022-11-08T09:52:58.438Z,0.73
2022-11-08T09:55:35.849Z,0.57
2022-11-08T09:57:53.067Z,0.50
2022-11-08T10:00:06.308Z,0.95
2022-11-08T10:02:17.359Z,0.60
2022-11-08T10:04:22.573Z,0.60
2022-11-08T10:06:30.179Z,0.50
2022-11-08T10:08:44.444Z,0.50
2022-11-08T10:11:01.447Z,0.40
2022-11-08T10:13:16.822Z,0.57
2022-11-08T10:15:36.900Z,0.60
2022-11-08T10:17:59.380Z,0.75
2022-11-08T10:20:30.110Z,0.50
2022-11-08T10:22:50.470Z,0.50
2022-11-08T10:24:52.104Z,0.77
2022-11-08T10:26:55.664Z,0.50
2022-11-08T10:29:08.102Z,0.57
2022-11-08T10:31:12.948Z,0.70
2022-11-08T10:33:14.967Z,0.50
2022-11-08T10:35:37.022Z,0.50
2022-11-08T10:37:39.275Z,0.63
2022-11-08T10:40:16.132Z,0.60
2022-11-08T10:42:41.834Z,0.80
2022-11-08T10:44:44.201Z,0.80
2022-11-08T10:46:46.995Z,0.65
2022-11-08T10:48:48.622Z,0.32
2022-11-08T10:50:51.923Z,0.43
2022-11-08T10:53:00.771Z,0.60
2022-11-08T10:55:07.130Z,0.50
2022-11-08T10:57:14.014Z,0.80
2022-11-08T10:59:32.264Z,0.50
2022-11-08T11:01:33.960Z,0.30
2022-11-08T11:03:35.818Z,0.50
2022-11-08T11:05:41.847Z,0.60
2022-11-08T11:08:02.918Z,0.80
2022-11-08T11:10:28.039Z,0.70
2022-11-08T11:12:29.740Z,0.45
2022-11-08T11:14:31.417Z,0.85
2022-11-08T11:16:33.253Z,2.10
2022-11-08T11:18:35.779Z,1.08
2022-11-08T11:20:37.452Z,0.60
2022-11-08T11:22:39.332Z,0.60
2022-11-08T11:24:50.804Z,0.60
2022-11-08T11:27:02.914Z,0.52
2022-11-08T11:29:04.832Z,0.52
2022-11-08T11:31:17.067Z,0.65
2022-11-08T11:33:26.753Z,0.60
2022-11-08T11:36:00.696Z,0.80
2022-11-08T11:38:04.303Z,0.57
2022-11-08T11:40:19.877Z,0.50
2022-11-08T11:42:48.507Z,0.43
2022-11-08T11:45:08.616Z,0.70
2022-11-08T11:47:17.662Z,0.70
2022-11-08T11:49:22.802Z,0.43
2022-11-08T11:51:27.428Z,0.65
2022-11-08T11:53:38.857Z,0.68
2022-11-08T11:55:56.632Z,0.50
2022-11-08T11:58:21.148Z,0.60
2022-11-08T12:00:23.136Z,0.50
2022-11-08T12:02:27.819Z,0.70
2022-11-08T12:04:59.377Z,0.60
2022-11-08T12:07:27.855Z,0.75
2022-11-08T12:09:54.159Z,0.73
2022-11-08T12:12:18.418Z,0.60
2022-11-08T12:14:32.457Z,0.63
2022-11-08T12:17:17.487Z,0.50
2022-11-08T12:19:37.789Z,0.70
2022-11-08T12:21:45.270Z,0.50
2022-11-08T12:23:48.044Z,0.55
2022-11-08T12:25:57.329Z,0.70
2022-11-08T12:28:24.420Z,0.77
2022-11-08T12:30:33.346Z,0.60
2022-11-08T12:33:09.402Z,0.50
2022-11-08T12:35:27.692Z,0.50
2022-11-08T12:38:02.700Z,0.40
2022-11-08T12:40:33.581Z,0.60
2022-11-08T12:42:50.482Z,0.40
2022-11-08T12:45:24.141Z,0.70
2022-11-08T12:47:41.587Z,0.55
2022-11-08T12:49:51.389Z,0.75
2022-11-08T12:52:17.578Z,0.43
2022-11-08T12:54:37.279Z,0.63
2022-11-08T12:56:44.808Z,0.50
2022-11-08T12:58:48.154Z,0.82
2022-11-08T13:00:52.526Z,1.00
2022-11-08T13:03:12.569Z,0.50
2022-11-08T13:05:27.874Z,0.70
2022-11-08T13:07:51.733Z,0.60
2022-11-08T13:10:15.670Z,0.52
2022-11-08T13:12:38.872Z,0.77
2022-11-08T13:14:41.531Z,0.70
2022-11-08T13:16:45.337Z,1.45
2022-11-08T13:18:50.090Z,1.02
2022-11-08T13:20:52.037Z,0.90
2022-11-08T13:22:59.109Z,0.45
2022-11-08T13:25:21.695Z,0.52
2022-11-08T13:27:30.682Z,0.60
2022-11-08T13:29:38.854Z,0.50
2022-11-08T13:32:09.935Z,0.60
2022-11-08T13:34:24.818Z,0.55
2022-11-08T13:36:47.707Z,0.70
2022-11-08T13:39:01.091Z,0.85
2022-11-08T13:41:24.479Z,0.50
2022-11-08T13:43:29.663Z,0.80
2022-11-08T13:45:35.052Z,0.50
2022-11-08T13:47:36.941Z,0.80
2022-11-08T13:49:38.680Z,0.60
2022-11-08T13:51:41.515Z,0.60
2022-11-08T13:54:23.677Z,0.40
2022-11-08T13:56:41.081Z,0.60
2022-11-08T13:58:49.791Z,0.70
2022-11-08T14:00:59.192Z,0.65
2022-11-08T14:03:01.839Z,0.50
2022-11-08T14:05:23.109Z,0.50
2022-11-08T14:07:54.532Z,0.98
2022-11-08T14:10:29.277Z,0.65
2022-11-08T14:12:38.371Z,0.50
2022-11-08T14:15:05.223Z,0.75
2022-11-08T14:17:15.497Z,0.50
2022-11-08T14:19:25.726Z,0.68
2022-11-08T14:21:27.657Z,0.57
2022-11-08T14:23:31.535Z,0.50
2022-11-08T14:25:36.777Z,0.88
2022-11-08T14:27:40.144Z,0.52
2022-11-08T14:29:42.133Z,0.40
2022-11-08T14:31:43.969Z,0.70
2022-11-08T14:33:45.581Z,0.45
2022-11-08T14:35:58.796Z,0.70
2022-11-08T14:38:00.461Z,0.80
2022-11-08T14:40:02.108Z,2.17
2022-11-08T14:42:05.846Z,0.80
2022-11-08T14:44:14.546Z,0.70
2022-11-08T14:46:40.440Z,0.70
2022-11-08T14:48:50.184Z,0.75
2022-11-08T14:50:58.511Z,0.77
2022-11-08T14:53:33.277Z,0.75
2022-11-08T14:55:37.207Z,0.82
2022-11-08T14:57:44.406Z,0.60
2022-11-08T14:59:46.533Z,0.80
2022-11-08T15:01:49.368Z,1.20
2022-11-08T15:03:59.635Z,0.88
2022-11-08T15:06:04.106Z,0.82
2022-11-08T15:08:16.197Z,0.70
2022-11-08T15:10:21.380Z,0.50
2022-11-08T15:12:24.477Z,0.70
2022-11-08T15:14:28.385Z,0.90
2022-11-08T15:16:46.918Z,0.98
2022-11-08T15:18:48.882Z,0.70
2022-11-08T15:20:59.064Z,0.75
2022-11-08T15:23:00.807Z,0.70
2022-11-08T15:25:25.578Z,0.73
2022-11-08T15:27:27.649Z,0.80
2022-11-08T15:29:29.257Z,0.80
2022-11-08T15:31:35.117Z,0.60
2022-11-08T15:33:38.606Z,0.95
2022-11-08T15:35:40.335Z,1.40
2022-11-08T15:37:42.867Z,0.88
2022-11-08T15:39:44.511Z,0.60
2022-11-08T15:41:58.463Z,0.63
2022-11-08T15:44:26.687Z,0.63
2022-11-08T15:46:33.873Z,0.80
2022-11-08T15:48:35.585Z,0.90
2022-11-08T15:50:37.309Z,0.70
2022-11-08T15:52:38.987Z,0.73
2022-11-08T15:54:40.622Z,0.70
2022-11-08T15:56:42.836Z,0.80
2022-11-08T15:58:44.575Z,0.93
2022-11-08T16:00:47.713Z,0.68
2022-11-08T16:02:49.596Z,0.77
2022-11-08T16:04:51.266Z,0.90
2022-11-08T16:06:53.008Z,0.80
2022-11-08T16:08:54.695Z,0.90
2022-11-08T16:10:59.144Z,0.60
2022-11-08T16:13:01.414Z,0.82
2022-11-08T16:15:03.113Z,2.33
2022-11-08T16:17:04.830Z,1.60
2022-11-08T16:19:19.039Z,2.35
2022-11-08T16:21:20.646Z,1.70
2022-11-08T16:23:22.282Z,2.67
2022-11-08T16:25:24.812Z,3.10
2022-11-08T16:27:26.481Z,2.38
2022-11-08T16:29:29.331Z,3.22
2022-11-08T16:31:31.231Z,13.20
2022-11-08T16:33:34.541Z,11.68
2022-11-08T16:35:36.198Z,4.72
2022-11-08T16:37:38.476Z,3.50
2022-11-08T16:39:40.143Z,2.35
2022-11-08T16:41:42.903Z,2.25
2022-11-08T16:43:44.945Z,1.90
2022-11-08T16:48:15.023Z,1.60
2022-11-08T16:50:26.457Z,2.03
2022-11-08T16:52:28.053Z,1.60
2022-11-08T16:54:29.696Z,1.40
2022-11-08T16:56:31.660Z,1.73
2022-11-08T16:58:33.348Z,1.23
2022-11-08T17:00:35.241Z,1.30
2022-11-08T17:02:39.277Z,1.20
2022-11-08T17:04:40.911Z,1.20
2022-11-08T17:06:42.653Z,0.95
2022-11-08T17:08:47.832Z,1.20
2022-11-08T17:10:49.473Z,1.00
2022-11-08T17:12:51.496Z,1.13
2022-11-08T17:14:53.166Z,0.88
2022-11-08T17:16:55.075Z,1.00
2022-11-08T17:18:57.714Z,1.67
2022-11-08T17:21:16.391Z,1.45
2022-11-08T17:23:22.326Z,1.00
2022-11-08T17:25:24.473Z,3.22
2022-11-08T17:27:26.044Z,1.75
2022-11-08T17:29:27.659Z,1.42
2022-11-08T17:31:29.401Z,2.20
2022-11-08T17:33:31.034Z,2.15
2022-11-08T17:35:32.746Z,1.70
2022-11-08T17:37:34.820Z,1.95
2022-11-08T17:39:36.491Z,4.30
2022-11-08T17:41:38.239Z,3.17
2022-11-08T17:43:40.555Z,3.63
2022-11-08T17:45:42.945Z,3.40
2022-11-08T17:47:44.589Z,3.78
2022-11-08T17:49:46.241Z,3.67
2022-11-08T17:51:48.024Z,3.67
2022-11-08T17:53:49.674Z,3.88
2022-11-08T17:55:55.931Z,3.55
2022-11-08T17:57:57.606Z,4.45
2022-11-08T17:59:59.354Z,1.85
2022-11-08T18:02:01.192Z,1.83
2022-11-08T18:04:03.624Z,1.50
2022-11-08T18:06:09.828Z,1.73
2022-11-08T18:08:11.443Z,4.75
2022-11-08T18:10:13.927Z,1.92
2022-11-08T18:12:15.693Z,1.58
2022-11-08T18:14:22.007Z,1.35
2022-11-08T18:16:27.412Z,1.60
2022-11-08T18:18:29.087Z,1.25
2022-11-08T18:22:33.149Z,1.08
2022-11-08T18:24:34.859Z,1.13
2022-11-08T18:26:36.565Z,0.93
2022-11-08T18:28:38.890Z,1.10
2022-11-08T18:30:44.014Z,1.13
2022-11-08T18:32:48.319Z,1.10
2022-11-08T18:34:50.027Z,1.42
2022-11-08T18:36:51.863Z,1.13
2022-11-08T18:38:53.875Z,1.00
2022-11-08T18:40:55.535Z,1.30
2022-11-08T18:42:57.183Z,1.38
2022-11-08T18:44:58.839Z,1.65
2022-11-08T18:47:00.487Z,1.98
2022-11-08T18:49:02.856Z,1.63
2022-11-08T18:51:10.781Z,1.40
2022-11-08T18:53:12.399Z,1.63
2022-11-08T18:55:15.060Z,1.00
2022-11-08T18:57:16.805Z,1.15
2022-11-08T18:59:18.450Z,1.00
2022-11-08T19:01:20.486Z,3.47
2022-11-08T19:03:22.563Z,2.15
2022-11-08T19:05:24.275Z,2.20
2022-11-08T19:07:26.792Z,2.97
2022-11-08T19:09:28.421Z,3.63
2022-11-08T19:11:30.689Z,3.33
2022-11-08T19:13:34.074Z,7.43
2022-11-08T19:15:35.708Z,3.13
2022-11-08T19:17:37.512Z,2.38
2022-11-08T19:19:39.176Z,1.40
2022-11-08T19:21:42.821Z,1.42
2022-11-08T19:23:45.931Z,1.50
2022-11-08T19:26:11.354Z,1.50
2022-11-08T19:28:12.952Z,1.40
2022-11-08T19:30:14.800Z,0.95
2022-11-08T19:32:16.376Z,1.00
2022-11-08T19:34:20.766Z,1.45
2022-11-08T19:36:24.912Z,1.10
2022-11-08T19:38:26.626Z,1.10
2022-11-08T19:40:32.671Z,1.33
2022-11-08T19:42:34.291Z,1.40
2022-11-08T19:44:36.129Z,2.28
2022-11-08T19:46:39.095Z,0.90
2022-11-08T19:48:42.378Z,1.00
2022-11-08T19:50:44.193Z,1.38
2022-11-08T19:52:45.803Z,0.95
2022-11-08T19:54:47.654Z,1.40
2022-11-08T19:57:06.150Z,0.95
2022-11-08T19:59:08.770Z,0.93
2022-11-08T20:01:14.121Z,0.90
2022-11-08T20:03:16.060Z,1.10
2022-11-08T20:05:18.581Z,0.90
2022-11-08T20:07:20.245Z,1.33
2022-11-08T20:09:30.174Z,0.80
2022-11-08T20:11:35.825Z,0.75
2022-11-08T20:13:38.042Z,1.00
2022-11-08T20:15:39.898Z,1.10
2022-11-08T20:17:42.669Z,0.82
2022-11-08T20:19:44.552Z,0.88
2022-11-08T20:21:46.622Z,0.88
2022-11-08T20:23:48.595Z,1.00
2022-11-08T20:25:50.267Z,1.08
2022-11-08T20:27:51.985Z,0.73
2022-11-08T20:29:53.658Z,1.02
2022-11-08T20:31:56.562Z,1.00
2022-11-08T20:33:58.547Z,0.73
2022-11-08T20:36:07.594Z,1.17
2022-11-08T20:38:09.211Z,1.00
2022-11-08T20:40:11.004Z,0.80
2022-11-08T20:42:12.644Z,1.25
2022-11-08T20:44:15.004Z,1.00
2022-11-08T20:46:18.697Z,1.33
2022-11-08T20:48:20.784Z,0.90
2022-11-08T20:50:22.611Z,1.40
2022-11-08T20:52:26.928Z,0.98
2022-11-08T20:54:28.552Z,0.90
2022-11-08T20:56:30.622Z,0.80
2022-11-08T20:58:34.074Z,1.23
2022-11-08T21:00:57.306Z,0.98
2022-11-08T21:02:57.393Z,1.10
2022-11-08T21:04:58.974Z,0.60
2022-11-08T21:08:00.362Z,1.00
2022-11-08T21:09:49.342Z,0.80
2022-11-08T21:11:43.881Z,0.82
2022-11-08T21:13:46.632Z,1.25
2022-11-08T21:15:48.815Z,3.53
2022-11-08T21:17:50.448Z,1.98
2022-11-08T21:19:52.181Z,1.83
2022-11-08T21:22:13.807Z,0.80
2022-11-08T21:24:15.516Z,1.10
2022-11-08T21:26:19.287Z,0.80
2022-11-08T21:28:21.149Z,0.80
2022-11-08T21:30:22.846Z,1.13
2022-11-08T21:32:24.463Z,0.90
2022-11-08T21:34:32.079Z,1.10
2022-11-08T21:36:34.065Z,1.45
2022-11-08T21:38:40.028Z,0.90
2022-11-08T21:40:41.828Z,1.05
2022-11-08T21:42:48.427Z,0.90
2022-11-08T21:44:50.414Z,0.82
2022-11-08T21:46:52.072Z,1.00
2022-11-08T21:48:56.140Z,0.70
2022-11-08T21:51:04.075Z,0.70
2022-11-08T21:53:07.596Z,0.93
2022-11-08T21:55:09.538Z,0.63
2022-11-08T21:57:11.188Z,0.68
2022-11-08T21:59:12.881Z,0.80
2022-11-08T22:01:14.609Z,0.90
2022-11-08T22:03:16.252Z,0.98
2022-11-08T22:05:17.975Z,1.00
2022-11-08T22:07:19.644Z,0.80
2022-11-08T22:09:21.389Z,0.75
2022-11-08T22:11:23.155Z,0.75
2022-11-08T22:13:24.757Z,0.88
2022-11-08T22:15:26.396Z,1.08
2022-11-08T22:17:28.020Z,0.80
2022-11-08T22:19:29.573Z,1.17
2022-11-08T22:21:41.125Z,0.80
2022-11-08T22:23:43.225Z,1.00
2022-11-08T22:25:44.847Z,0.90
2022-11-08T22:27:46.515Z,1.20
2022-11-08T22:29:48.118Z,0.85
2022-11-08T22:31:50.123Z,1.27
2022-11-08T22:33:51.729Z,1.35
2022-11-08T22:35:53.515Z,0.93
2022-11-08T22:37:55.130Z,1.05
2022-11-08T22:39:56.733Z,1.02
2022-11-08T22:41:58.438Z,1.00
2022-11-08T22:44:00.370Z,0.90
2022-11-08T22:46:02.203Z,0.95
2022-11-08T22:48:03.953Z,0.80
2022-11-08T22:50:05.895Z,0.90
2022-11-08T22:52:07.534Z,0.90
2022-11-08T22:54:09.491Z,1.30
2022-11-08T22:56:12.014Z,0.80
2022-11-08T22:58:13.711Z,0.95
2022-11-08T23:00:15.711Z,1.80
2022-11-08T23:02:17.409Z,1.80
2022-11-08T23:04:19.116Z,1.65
2022-11-08T23:06:20.797Z,1.38
2022-11-08T23:08:24.428Z,1.25
2022-11-08T23:10:26.408Z,1.77
2022-11-08T23:12:46.575Z,1.35
2022-11-08T23:15:06.641Z,1.10
2022-11-08T23:17:08.620Z,1.02
2022-11-08T23:19:35.188Z,1.30
2022-11-08T23:21:55.556Z,0.98
2022-11-08T23:24:15.739Z,1.02
2022-11-08T23:26:40.196Z,0.90
2022-11-08T23:29:17.275Z,0.82
2022-11-08T23:31:37.473Z,0.80
2022-11-08T23:33:43.957Z,0.73
2022-11-08T23:36:05.651Z,0.98
2022-11-08T23:38:10.284Z,1.13
2022-11-08T23:40:32.193Z,1.05
2022-11-08T23:42:52.449Z,1.20
2022-11-08T23:44:54.034Z,0.90
2022-11-08T23:46:58.044Z,0.90
2022-11-08T23:48:59.747Z,1.02
2022-11-08T23:51:01.458Z,1.40
2022-11-08T23:53:03.129Z,1.05
2022-11-08T23:55:05.529Z,1.48
2022-11-08T23:57:07.198Z,1.10
2022-11-08T23:59:09.630Z,1.00
